createdAt,value
2018-05-31T00:01:32.213Z,11.13
2018-05-31T00:03:59.809Z,8.60
2018-05-31T00:06:27.461Z,10.00
2018-05-31T00:08:55.070Z,10.30
2018-05-31T00:11:22.709Z,9.60
2018-05-31T00:13:50.321Z,10.80
2018-05-31T00:16:18.169Z,11.97
2018-05-31T00:18:45.790Z,10.90
2018-05-31T00:21:13.433Z,9.83
2018-05-31T00:23:41.036Z,10.17
2018-05-31T00:26:08.681Z,9.53
2018-05-31T00:28:36.296Z,9.73
2018-05-31T00:31:03.963Z,10.20
2018-05-31T00:33:31.552Z,10.60
2018-05-31T00:35:59.213Z,10.80
2018-05-31T00:38:26.844Z,10.63
2018-05-31T00:40:54.544Z,9.70
2018-05-31T00:43:22.160Z,10.00
2018-05-31T00:45:49.897Z,10.20
2018-05-31T00:48:17.540Z,10.50
2018-05-31T00:50:45.139Z,10.90
2018-05-31T00:53:12.977Z,12.93
2018-05-31T00:55:52.452Z,12.90
2018-05-31T00:58:20.082Z,11.43
2018-05-31T01:00:47.689Z,10.93
2018-05-31T01:03:15.320Z,11.63
2018-05-31T01:05:42.936Z,11.40
2018-05-31T01:08:10.649Z,10.17
2018-05-31T01:10:38.355Z,10.37
2018-05-31T01:13:06.004Z,11.37
2018-05-31T01:15:33.608Z,11.23
2018-05-31T01:18:01.268Z,11.50
2018-05-31T01:20:29.101Z,11.50
2018-05-31T01:22:56.732Z,11.70
2018-05-31T01:25:24.363Z,11.30
2018-05-31T01:27:52.161Z,10.90
2018-05-31T01:30:19.769Z,12.00
2018-05-31T01:32:47.372Z,11.70
2018-05-31T01:35:15.165Z,11.03
2018-05-31T01:37:42.787Z,11.40
2018-05-31T01:40:10.518Z,11.50
2018-05-31T01:42:38.113Z,10.80
2018-05-31T01:45:05.894Z,11.20
2018-05-31T01:47:33.551Z,10.73
2018-05-31T01:50:01.341Z,11.87
2018-05-31T01:52:28.947Z,11.73
2018-05-31T01:54:56.582Z,10.50
2018-05-31T01:57:24.201Z,11.10
2018-05-31T01:59:52.089Z,9.60
2018-05-31T02:02:19.760Z,10.63
2018-05-31T02:04:47.433Z,11.00
2018-05-31T02:07:15.055Z,12.07
2018-05-31T02:09:42.680Z,11.30
2018-05-31T02:12:10.429Z,11.30
2018-05-31T02:14:38.053Z,11.60
2018-05-31T02:17:05.693Z,10.83
2018-05-31T02:19:33.727Z,13.47
2018-05-31T02:22:01.403Z,11.17
2018-05-31T02:24:29.001Z,9.80
2018-05-31T02:26:56.640Z,13.57
2018-05-31T02:29:24.249Z,10.07
2018-05-31T02:31:51.900Z,11.83
2018-05-31T02:34:19.536Z,10.10
2018-05-31T02:36:47.181Z,10.93
2018-05-31T02:39:14.805Z,11.10
2018-05-31T02:41:42.457Z,11.20
2018-05-31T02:44:10.141Z,9.70
2018-05-31T02:46:37.778Z,10.90
2018-05-31T02:49:05.428Z,10.67
2018-05-31T02:51:33.134Z,9.60
2018-05-31T02:54:00.800Z,11.40
2018-05-31T02:56:28.409Z,10.57
2018-05-31T02:58:56.058Z,11.83
2018-05-31T03:01:23.669Z,10.90
2018-05-31T03:03:51.308Z,10.50
2018-05-31T03:06:18.913Z,9.90
2018-05-31T03:08:46.559Z,9.70
2018-05-31T03:11:14.173Z,10.50
2018-05-31T03:13:41.809Z,10.53
2018-05-31T03:16:09.408Z,9.83
2018-05-31T03:18:37.049Z,10.80
2018-05-31T03:21:04.693Z,11.30
2018-05-31T03:23:32.389Z,10.27
2018-05-31T03:25:59.997Z,9.47
2018-05-31T03:28:27.600Z,9.60
2018-05-31T03:30:55.290Z,10.03
2018-05-31T03:33:22.945Z,10.57
2018-05-31T03:35:50.621Z,10.40
2018-05-31T03:38:18.231Z,9.80
2018-05-31T03:40:45.873Z,11.23
2018-05-31T03:43:13.546Z,9.40
2018-05-31T03:45:41.189Z,9.03
2018-05-31T03:48:08.781Z,9.67
2018-05-31T03:50:36.439Z,10.17
2018-05-31T03:53:04.092Z,10.33
2018-05-31T03:55:31.740Z,11.33
2018-05-31T03:57:59.365Z,10.20
2018-05-31T04:00:27.021Z,9.67
2018-05-31T04:02:54.620Z,9.70
2018-05-31T04:05:22.208Z,9.90
2018-05-31T04:07:49.968Z,8.60
2018-05-31T04:10:17.572Z,9.77
2018-05-31T04:12:45.200Z,9.93
2018-05-31T04:15:12.801Z,9.43
2018-05-31T04:17:40.441Z,10.10
2018-05-31T04:20:08.049Z,11.53
2018-05-31T04:22:35.677Z,9.10
2018-05-31T04:25:03.289Z,9.00
2018-05-31T04:27:30.932Z,8.83
2018-05-31T04:29:58.542Z,9.10
2018-05-31T04:32:26.202Z,8.30
2018-05-31T04:34:53.796Z,9.23
2018-05-31T04:37:21.436Z,8.97
2018-05-31T04:39:49.044Z,9.63
2018-05-31T04:42:16.725Z,10.00
2018-05-31T04:44:44.316Z,9.80
2018-05-31T04:47:11.977Z,9.20
2018-05-31T04:49:39.597Z,11.90
2018-05-31T04:52:07.203Z,11.20
2018-05-31T04:54:34.837Z,9.93
2018-05-31T04:57:02.458Z,9.57
2018-05-31T04:59:30.112Z,10.40
2018-05-31T05:01:57.721Z,9.77
2018-05-31T05:04:25.384Z,9.10
2018-05-31T05:06:53.053Z,9.80
2018-05-31T05:09:20.704Z,10.57
2018-05-31T05:11:48.344Z,10.57
2018-05-31T05:14:16.130Z,9.80
2018-05-31T05:16:43.744Z,8.40
2018-05-31T05:19:11.385Z,9.53
2018-05-31T05:21:38.979Z,8.30
2018-05-31T05:24:06.605Z,7.83
2018-05-31T05:26:34.239Z,12.67
2018-05-31T05:29:01.865Z,11.40
2018-05-31T05:31:29.472Z,9.37
2018-05-31T05:33:57.283Z,10.43
2018-05-31T05:36:24.892Z,9.13
2018-05-31T05:38:52.519Z,8.70
2018-05-31T05:41:20.184Z,10.23
2018-05-31T05:43:47.788Z,8.63
2018-05-31T05:46:15.441Z,8.67
2018-05-31T05:48:43.117Z,7.83
2018-05-31T05:51:10.827Z,7.23
2018-05-31T05:53:38.442Z,8.87
2018-05-31T05:56:06.059Z,7.43
2018-05-31T05:58:33.689Z,7.17
2018-05-31T06:01:01.322Z,6.87
2018-05-31T06:03:28.900Z,6.90
2018-05-31T06:05:56.606Z,7.50
2018-05-31T06:08:24.178Z,6.27
2018-05-31T06:10:51.832Z,7.13
2018-05-31T06:13:19.445Z,6.77
2018-05-31T06:15:47.056Z,6.13
2018-05-31T06:18:14.717Z,9.10
2018-05-31T06:20:42.324Z,6.83
2018-05-31T06:23:09.964Z,9.87
2018-05-31T06:25:37.576Z,9.30
2018-05-31T06:28:05.213Z,12.37
2018-05-31T06:30:32.810Z,6.87
2018-05-31T06:33:00.497Z,8.20
2018-05-31T06:35:28.104Z,5.73
2018-05-31T06:37:55.767Z,6.57
2018-05-31T06:40:23.377Z,6.20
2018-05-31T06:42:51.060Z,7.10
2018-05-31T06:45:18.705Z,6.20
2018-05-31T06:47:46.350Z,5.80
2018-05-31T06:50:13.969Z,6.60
2018-05-31T06:52:43.386Z,8.27
2018-05-31T06:55:11.022Z,7.17
2018-05-31T06:57:38.625Z,6.97
2018-05-31T07:00:06.329Z,6.30
2018-05-31T07:02:33.941Z,11.27
2018-05-31T07:05:01.581Z,8.60
2018-05-31T07:07:29.216Z,6.33
2018-05-31T07:09:56.841Z,5.57
2018-05-31T07:12:24.561Z,6.97
2018-05-31T07:14:52.189Z,7.77
2018-05-31T07:17:19.794Z,9.47
2018-05-31T07:19:47.433Z,6.27
2018-05-31T07:22:15.030Z,6.10
2018-05-31T07:24:42.691Z,6.60
2018-05-31T07:27:10.334Z,10.70
2018-05-31T07:29:37.917Z,6.77
2018-05-31T07:32:05.549Z,5.17
2018-05-31T07:34:33.160Z,6.67
2018-05-31T07:37:00.805Z,5.03
2018-05-31T07:39:28.460Z,5.73
2018-05-31T07:41:56.137Z,9.50
2018-05-31T07:44:23.802Z,6.93
2018-05-31T07:46:51.388Z,6.40
2018-05-31T07:49:18.988Z,6.53
2018-05-31T07:51:46.683Z,7.07
2018-05-31T07:54:14.306Z,7.27
2018-05-31T07:56:41.937Z,5.50
2018-05-31T07:59:09.518Z,7.57
2018-05-31T08:01:37.260Z,8.60
2018-05-31T08:04:04.889Z,5.80
2018-05-31T08:06:32.536Z,4.03
2018-05-31T08:09:00.216Z,3.93
2018-05-31T08:11:27.911Z,5.93
2018-05-31T08:13:55.548Z,3.20
2018-05-31T08:16:23.193Z,3.80
2018-05-31T08:18:50.829Z,3.50
2018-05-31T08:21:18.443Z,6.40
2018-05-31T08:23:46.248Z,3.27
2018-05-31T08:26:13.857Z,4.17
2018-05-31T08:28:41.656Z,3.73
2018-05-31T08:31:09.301Z,7.23
2018-05-31T08:33:36.941Z,4.40
2018-05-31T08:36:04.540Z,4.23
2018-05-31T08:38:32.181Z,4.90
2018-05-31T08:40:59.792Z,4.80
2018-05-31T08:43:27.513Z,5.30
2018-05-31T08:45:55.137Z,11.80
2018-05-31T08:48:22.841Z,5.43
2018-05-31T08:50:50.456Z,4.10
2018-05-31T08:53:18.050Z,4.93
2018-05-31T08:55:45.779Z,3.47
2018-05-31T08:58:13.412Z,10.93
2018-05-31T09:00:41.039Z,4.03
2018-05-31T09:03:08.744Z,4.80
2018-05-31T09:05:36.374Z,5.17
2018-05-31T09:08:04.048Z,3.97
2018-05-31T09:10:31.709Z,4.73
2018-05-31T09:12:59.294Z,4.03
2018-05-31T09:15:26.941Z,5.40
2018-05-31T09:17:54.545Z,9.00
2018-05-31T09:20:22.252Z,5.87
2018-05-31T09:22:50.041Z,7.13
2018-05-31T09:25:17.641Z,4.67
2018-05-31T09:27:45.281Z,4.00
2018-05-31T09:30:12.918Z,4.23
2018-05-31T09:32:40.553Z,3.90
2018-05-31T09:35:08.203Z,5.80
2018-05-31T09:37:35.803Z,5.90
2018-05-31T09:40:03.400Z,4.30
2018-05-31T09:42:31.040Z,6.00
2018-05-31T09:44:58.713Z,3.80
2018-05-31T09:47:26.364Z,5.30
2018-05-31T09:49:53.963Z,3.73
2018-05-31T09:52:21.614Z,3.63
2018-05-31T09:54:49.229Z,4.90
2018-05-31T09:57:16.926Z,3.73
2018-05-31T09:59:44.522Z,8.10
2018-05-31T10:02:12.165Z,5.73
2018-05-31T10:04:39.794Z,7.50
2018-05-31T10:07:07.445Z,3.57
2018-05-31T10:09:35.166Z,4.87
2018-05-31T10:12:02.785Z,3.93
2018-05-31T10:14:30.412Z,4.43
2018-05-31T10:16:58.023Z,3.80
2018-05-31T10:19:25.667Z,6.03
2018-05-31T10:21:53.268Z,2.90
2018-05-31T10:24:20.928Z,5.83
2018-05-31T10:26:48.556Z,6.97
2018-05-31T10:29:16.201Z,5.70
2018-05-31T10:31:43.835Z,5.60
2018-05-31T10:34:11.477Z,3.20
2018-05-31T10:36:39.081Z,6.27
2018-05-31T10:39:06.756Z,5.73
2018-05-31T10:41:34.375Z,4.80
2018-05-31T10:44:02.029Z,8.17
2018-05-31T10:46:29.679Z,9.73
2018-05-31T10:48:57.204Z,6.30
2018-05-31T10:51:24.886Z,8.67
2018-05-31T10:53:52.519Z,5.77
2018-05-31T10:56:20.145Z,5.07
2018-05-31T10:58:47.737Z,6.00
2018-05-31T11:01:15.389Z,8.50
2018-05-31T11:03:42.981Z,5.90
2018-05-31T11:06:10.616Z,7.33
2018-05-31T11:08:38.210Z,7.73
2018-05-31T11:11:06.518Z,7.97
2018-05-31T11:13:34.156Z,3.97
2018-05-31T11:16:01.817Z,4.87
2018-05-31T11:18:29.424Z,7.80
2018-05-31T11:20:57.111Z,4.40
2018-05-31T11:23:24.736Z,7.97
2018-05-31T11:25:52.458Z,4.57
2018-05-31T11:28:20.049Z,6.23
2018-05-31T11:30:47.707Z,5.73
2018-05-31T11:33:15.309Z,5.03
2018-05-31T11:35:42.908Z,5.13
2018-05-31T11:38:10.556Z,3.80
2018-05-31T11:40:38.172Z,6.10
2018-05-31T11:43:05.825Z,4.33
2018-05-31T11:45:33.417Z,6.23
2018-05-31T11:48:01.055Z,4.73
2018-05-31T11:50:28.662Z,7.93
2018-05-31T11:52:56.335Z,4.30
2018-05-31T11:55:23.959Z,4.17
2018-05-31T11:57:51.640Z,9.00
2018-05-31T12:00:19.251Z,6.63
2018-05-31T12:02:46.913Z,4.30
2018-05-31T12:05:14.554Z,4.20
2018-05-31T12:07:42.248Z,6.67
2018-05-31T12:10:09.914Z,6.10
2018-05-31T12:12:37.521Z,8.60
2018-05-31T12:15:05.180Z,5.77
2018-05-31T12:17:32.804Z,4.90
2018-05-31T12:20:00.417Z,4.10
2018-05-31T12:22:28.061Z,6.47
2018-05-31T12:24:55.758Z,4.40
2018-05-31T12:27:23.362Z,4.87
2018-05-31T12:29:51.065Z,14.93
2018-05-31T12:32:18.679Z,7.23
2018-05-31T12:34:46.304Z,5.60
2018-05-31T12:37:13.927Z,5.13
2018-05-31T12:39:41.573Z,6.30
2018-05-31T12:42:09.181Z,4.60
2018-05-31T12:44:36.898Z,5.00
2018-05-31T12:47:04.510Z,3.40
2018-05-31T12:49:32.169Z,4.27
2018-05-31T12:51:59.885Z,3.20
2018-05-31T12:54:27.504Z,3.60
2018-05-31T12:56:55.143Z,3.60
2018-05-31T12:59:22.756Z,3.03
2018-05-31T13:01:50.439Z,5.53
2018-05-31T13:04:18.020Z,3.23
2018-05-31T13:06:45.719Z,3.93
2018-05-31T13:09:13.358Z,4.33
2018-05-31T13:11:40.979Z,4.30
2018-05-31T13:14:08.597Z,3.10
2018-05-31T13:16:36.277Z,5.53
2018-05-31T13:19:03.884Z,5.60
2018-05-31T13:21:31.583Z,3.87
2018-05-31T13:23:59.215Z,3.60
2018-05-31T13:26:26.862Z,4.63
2018-05-31T13:28:54.545Z,4.23
2018-05-31T13:31:22.202Z,3.73
2018-05-31T13:33:49.997Z,3.80
2018-05-31T13:36:17.592Z,5.83
2018-05-31T13:38:45.238Z,3.83
2018-05-31T13:41:12.932Z,3.67
2018-05-31T13:43:40.588Z,3.70
2018-05-31T13:46:08.193Z,4.90
2018-05-31T13:48:35.871Z,4.60
2018-05-31T13:51:03.505Z,3.97
2018-05-31T13:53:31.138Z,5.17
2018-05-31T13:55:58.761Z,4.63
2018-05-31T13:58:26.381Z,4.03
2018-05-31T14:00:54.002Z,3.57
2018-05-31T14:03:21.646Z,3.63
2018-05-31T14:05:49.249Z,3.33
2018-05-31T14:08:16.928Z,3.20
2018-05-31T14:10:44.541Z,5.63
2018-05-31T14:13:12.243Z,5.83
2018-05-31T14:15:39.904Z,4.17
2018-05-31T14:18:07.601Z,5.13
2018-05-31T14:20:35.256Z,3.80
2018-05-31T14:23:02.870Z,5.07
2018-05-31T14:25:30.621Z,3.73
2018-05-31T14:27:58.224Z,5.87
2018-05-31T14:30:25.869Z,4.23
2018-05-31T14:32:53.561Z,5.07
2018-05-31T14:35:21.212Z,6.57
2018-05-31T14:37:48.869Z,4.30
2018-05-31T14:40:16.494Z,5.60
2018-05-31T14:42:44.109Z,3.83
2018-05-31T14:45:11.809Z,5.30
2018-05-31T14:47:39.420Z,5.17
2018-05-31T14:50:07.081Z,4.80
2018-05-31T14:52:34.687Z,4.60
2018-05-31T14:55:02.305Z,3.67
2018-05-31T14:57:29.960Z,4.63
2018-05-31T14:59:57.630Z,4.00
2018-05-31T15:02:25.265Z,4.77
2018-05-31T15:04:52.858Z,7.00
2018-05-31T15:07:20.482Z,4.60
2018-05-31T15:09:48.092Z,16.40
2018-05-31T15:12:15.712Z,4.63
2018-05-31T15:14:43.305Z,4.13
2018-05-31T15:17:11.078Z,3.80
2018-05-31T15:19:38.680Z,4.87
2018-05-31T15:22:06.355Z,3.63
2018-05-31T15:24:33.999Z,4.90
2018-05-31T15:27:01.643Z,10.07
2018-05-31T15:29:29.232Z,20.73
2018-05-31T15:31:57.114Z,4.57
2018-05-31T15:34:24.719Z,3.50
2018-05-31T15:36:52.328Z,4.00
2018-05-31T15:39:19.969Z,3.23
2018-05-31T15:41:47.572Z,3.90
2018-05-31T15:44:15.249Z,5.27
2018-05-31T15:46:42.883Z,7.80
2018-05-31T15:49:10.557Z,6.17
2018-05-31T15:51:38.169Z,3.37
2018-05-31T15:54:05.860Z,5.33
2018-05-31T15:56:33.473Z,5.30
2018-05-31T15:59:01.135Z,3.30
2018-05-31T16:01:28.777Z,4.43
2018-05-31T16:03:56.446Z,4.90
2018-05-31T16:06:24.047Z,4.20
2018-05-31T16:08:51.697Z,4.17
2018-05-31T16:11:19.300Z,4.30
2018-05-31T16:13:46.996Z,3.50
2018-05-31T16:16:14.608Z,3.73
2018-05-31T16:18:42.197Z,3.30
2018-05-31T16:21:09.834Z,3.50
2018-05-31T16:23:37.724Z,3.83
2018-05-31T16:26:05.360Z,4.63
2018-05-31T16:28:33.007Z,3.50
2018-05-31T16:31:00.640Z,3.57
2018-05-31T16:33:28.333Z,3.77
2018-05-31T16:35:56.028Z,4.97
2018-05-31T16:38:23.639Z,4.10
2018-05-31T16:40:51.337Z,4.23
2018-05-31T16:43:18.926Z,6.10
2018-05-31T16:45:46.594Z,3.73
2018-05-31T16:48:14.191Z,5.53
2018-05-31T16:50:41.856Z,4.67
2018-05-31T16:53:09.448Z,4.63
2018-05-31T16:55:37.116Z,5.40
2018-05-31T16:58:04.746Z,4.40
2018-05-31T17:00:32.351Z,4.47
2018-05-31T17:03:00.042Z,3.83
2018-05-31T17:05:27.695Z,5.07
2018-05-31T17:07:55.333Z,4.00
2018-05-31T17:10:23.061Z,3.83
2018-05-31T17:12:50.694Z,4.70
2018-05-31T17:15:18.297Z,5.10
2018-05-31T17:17:45.948Z,6.17
2018-05-31T17:20:13.569Z,4.10
2018-05-31T17:22:41.274Z,4.00
2018-05-31T17:25:08.908Z,3.57
2018-05-31T17:27:36.558Z,4.20
2018-05-31T17:30:04.153Z,4.70
2018-05-31T17:32:31.917Z,3.90
2018-05-31T17:34:59.531Z,3.80
2018-05-31T17:37:27.220Z,5.23
2018-05-31T17:39:54.849Z,3.83
2018-05-31T17:42:22.492Z,5.60
2018-05-31T17:44:50.119Z,7.17
2018-05-31T17:47:17.813Z,4.90
2018-05-31T17:49:45.449Z,4.93
2018-05-31T17:52:13.054Z,6.77
2018-05-31T17:54:40.769Z,5.90
2018-05-31T17:57:08.361Z,6.13
2018-05-31T17:59:36.024Z,5.60
2018-05-31T18:02:03.614Z,5.83
2018-05-31T18:04:31.310Z,7.07
2018-05-31T18:06:58.914Z,6.57
2018-05-31T18:09:26.589Z,5.93
2018-05-31T18:11:54.193Z,6.60
2018-05-31T18:14:21.885Z,6.77
2018-05-31T18:16:49.461Z,6.03
2018-05-31T18:19:17.113Z,7.90
2018-05-31T18:21:44.737Z,5.83
2018-05-31T18:24:12.517Z,7.40
2018-05-31T18:26:40.182Z,7.63
2018-05-31T18:29:07.833Z,6.30
2018-05-31T18:31:35.572Z,6.77
2018-05-31T18:34:03.177Z,6.77
2018-05-31T18:36:30.845Z,6.77
2018-05-31T18:38:58.521Z,6.67
2018-05-31T18:41:26.165Z,6.53
2018-05-31T18:43:53.760Z,6.37
2018-05-31T18:46:21.449Z,6.70
2018-05-31T18:48:49.107Z,6.57
2018-05-31T18:51:20.715Z,6.73
2018-05-31T18:53:48.372Z,6.83
2018-05-31T18:56:16.065Z,6.87
2018-05-31T18:58:43.708Z,7.23
2018-05-31T19:01:11.393Z,7.20
2018-05-31T19:03:39.021Z,7.70
2018-05-31T19:06:06.665Z,7.63
2018-05-31T19:08:34.298Z,8.93
2018-05-31T19:11:02.248Z,8.60
2018-05-31T19:13:35.429Z,9.83
2018-05-31T19:16:03.122Z,9.97
2018-05-31T19:18:36.329Z,10.13
2018-05-31T19:21:03.989Z,10.73
2018-05-31T19:23:31.641Z,9.77
2018-05-31T19:25:59.321Z,12.53
2018-05-31T19:28:26.970Z,10.10
2018-05-31T19:31:00.174Z,13.63
2018-05-31T19:33:27.845Z,12.97
2018-05-31T19:36:01.149Z,11.73
2018-05-31T19:38:28.765Z,12.33
2018-05-31T19:40:56.377Z,12.93
2018-05-31T19:43:29.510Z,12.13
2018-05-31T19:45:57.122Z,11.40
2018-05-31T19:48:24.752Z,12.27
2018-05-31T19:50:52.376Z,11.40
2018-05-31T19:53:25.504Z,13.07
2018-05-31T19:55:53.126Z,13.63
2018-05-31T19:58:28.036Z,11.77
2018-05-31T20:01:01.124Z,10.97
2018-05-31T20:03:37.038Z,12.30
2018-05-31T20:06:04.650Z,12.27
2018-05-31T20:08:32.331Z,41.50
2018-05-31T20:10:59.989Z,18.23
2018-05-31T20:13:27.677Z,14.90
2018-05-31T20:15:55.345Z,13.03
2018-05-31T20:18:23.001Z,13.33
2018-05-31T20:20:50.694Z,13.67
2018-05-31T20:23:18.325Z,13.77
2018-05-31T20:25:45.962Z,14.50
2018-05-31T20:28:13.683Z,13.80
2018-05-31T20:30:41.364Z,15.20
2018-05-31T20:33:09.045Z,14.17
2018-05-31T20:35:36.684Z,14.27
2018-05-31T20:38:04.313Z,15.37
2018-05-31T20:40:31.961Z,14.50
2018-05-31T20:42:59.588Z,13.03
2018-05-31T20:45:27.376Z,14.30
2018-05-31T20:47:55.034Z,13.93
2018-05-31T20:50:22.852Z,16.00
2018-05-31T20:52:50.477Z,14.90
2018-05-31T20:55:18.178Z,15.73
2018-05-31T20:57:45.804Z,15.80
2018-05-31T21:00:13.462Z,14.83
2018-05-31T21:02:41.149Z,14.30
2018-05-31T21:05:08.825Z,15.93
2018-05-31T21:07:36.441Z,15.57
2018-05-31T21:10:04.071Z,17.53
2018-05-31T21:12:31.704Z,17.63
2018-05-31T21:14:59.374Z,18.00
2018-05-31T21:17:26.980Z,15.30
2018-05-31T21:19:55.191Z,17.10
2018-05-31T21:22:22.813Z,16.17
2018-05-31T21:24:50.463Z,15.97
2018-05-31T21:27:18.139Z,17.67
2018-05-31T21:29:45.783Z,16.30
2018-05-31T21:32:13.426Z,18.67
2018-05-31T21:34:41.026Z,17.17
2018-05-31T21:37:08.807Z,15.03
2018-05-31T21:39:36.401Z,16.10
2018-05-31T21:42:04.084Z,15.33
2018-05-31T21:44:31.684Z,17.23
2018-05-31T21:46:59.312Z,16.57
2018-05-31T21:49:27.044Z,15.77
2018-05-31T21:51:54.993Z,16.40
2018-05-31T21:54:22.652Z,15.77
2018-05-31T21:56:50.345Z,16.10
2018-05-31T21:59:17.940Z,17.37
2018-05-31T22:01:45.608Z,16.20
2018-05-31T22:04:13.228Z,17.67
2018-05-31T22:06:40.949Z,14.73
2018-05-31T22:09:08.563Z,15.63
2018-05-31T22:11:36.245Z,15.60
2018-05-31T22:14:03.856Z,17.13
2018-05-31T22:16:31.484Z,17.10
2018-05-31T22:18:59.253Z,18.80
2018-05-31T22:21:26.863Z,18.20
2018-05-31T22:23:54.510Z,17.70
2018-05-31T22:26:22.129Z,17.43
2018-05-31T22:28:49.768Z,19.23
2018-05-31T22:31:17.377Z,19.07
2018-05-31T22:33:45.041Z,18.27
2018-05-31T22:36:12.657Z,19.23
2018-05-31T22:38:40.308Z,19.60
2018-05-31T22:41:07.913Z,18.50
2018-05-31T22:43:35.510Z,18.33
2018-05-31T22:46:03.203Z,19.63
2018-05-31T22:48:30.786Z,19.60
2018-05-31T22:50:58.436Z,20.13
2018-05-31T22:53:26.105Z,22.67
2018-05-31T22:55:53.837Z,22.17
2018-05-31T22:58:21.683Z,19.97
2018-05-31T23:00:49.355Z,19.37
2018-05-31T23:03:16.961Z,18.90
2018-05-31T23:05:44.596Z,19.67
2018-05-31T23:08:12.206Z,18.97
2018-05-31T23:10:39.899Z,20.10
2018-05-31T23:13:07.526Z,20.00
2018-05-31T23:15:35.485Z,18.13
2018-05-31T23:18:03.089Z,19.87
2018-05-31T23:20:30.784Z,18.80
2018-05-31T23:22:58.384Z,20.47
2018-05-31T23:25:26.026Z,18.43
2018-05-31T23:27:53.693Z,20.73
2018-05-31T23:30:21.301Z,18.40
2018-05-31T23:32:49.017Z,18.50
2018-05-31T23:35:16.636Z,20.13
2018-05-31T23:37:44.272Z,18.37
2018-05-31T23:40:12.700Z,19.13
2018-05-31T23:42:40.376Z,20.10
2018-05-31T23:45:07.990Z,20.90
2018-05-31T23:47:35.639Z,22.10
2018-05-31T23:50:03.238Z,22.93
2018-05-31T23:52:30.896Z,22.03
2018-05-31T23:54:58.590Z,20.70
2018-05-31T23:57:26.303Z,19.70
2018-05-31T23:59:53.921Z,20.17
